CYTZ/YTZ METAR and TAF weather

Enter ICAO airport designator
Station Type Date Time Source
CYTZ METAR 2017/11/22 06:00 UTC NOAA

CYTZ 220600Z AUTO 29008G15KT 270V340 9SM OVC031 04/M00 A2993 RMK SLP138


Station Type Date Time Source
CYTZ Decoded METAR 2017/11/22 06:00 UTC NOAA

Toronto Island Airport Automated Reporting Station, Canada (CYTZ) 43-38N 079-24W
Nov 22, 2017 - 01:00 AM EST / 2017.11.22 0600 UTC
Wind: from the WNW (290 degrees) at 9 MPH (8 KT) gusting to 17 MPH (15 KT) (direction variable):0
Visibility: 9 mile(s):0
Sky conditions: overcast
Temperature: 39 F (4 C)
Dew Point: 32 F (0 C)
Relative Humidity: 75%
Pressure (altimeter): 29.93 in. Hg (1013 hPa)
ob: CYTZ 220600Z AUTO 29008G15KT 270V340 9SM OVC031 04/M00 A2993 RMK SLP138
cycle: 6

Station Type Date Time Source
CYTZ TAF 2017/11/22 02:45 UTC NOAA

TAF CYTZ 220138Z 2202/2302 29015G25KT P6SM -SHRA SCT020 OVC050
TEMPO 2202/2205 6SM -SHRA BR BKN020 OVC050
FM220500 28012G22KT P6SM BKN025
TEMPO 2211/2215 6SM -SHSN OVC020
FM221500 32010G20KT P6SM BKN025
FM222300 30010KT P6SM SCT030
RMK FCST BASED ON AUTO OBS. NXT FCST BY 220800Z


Example: see airport list